createdAt,value
2018-06-22T00:00:35.057Z,1016.47
2018-06-22T00:01:35.040Z,1016.44
2018-06-22T00:02:35.022Z,1016.40
2018-06-22T00:03:35.010Z,1016.43
2018-06-22T00:04:34.988Z,1016.46
2018-06-22T00:05:34.977Z,1016.45
2018-06-22T00:06:34.952Z,1016.41
2018-06-22T00:07:34.939Z,1016.43
2018-06-22T00:08:34.927Z,1016.43
2018-06-22T00:09:34.904Z,1016.45
2018-06-22T00:10:34.884Z,1016.43
2018-06-22T00:11:34.866Z,1016.44
2018-06-22T00:12:34.857Z,1016.44
2018-06-22T00:13:34.833Z,1016.42
2018-06-22T00:14:34.815Z,1016.38
2018-06-22T00:15:34.799Z,1016.42
2018-06-22T00:16:34.789Z,1016.38
2018-06-22T00:17:34.776Z,1016.33
2018-06-22T00:18:34.745Z,1016.33
2018-06-22T00:19:34.729Z,1016.31
2018-06-22T00:20:34.715Z,1016.34
2018-06-22T00:21:34.693Z,1016.28
2018-06-22T00:22:34.677Z,1016.23
2018-06-22T00:23:34.658Z,1016.21
2018-06-22T00:24:34.656Z,1016.22
2018-06-22T00:25:34.625Z,1016.23
2018-06-22T00:26:34.613Z,1016.23
2018-06-22T00:27:34.596Z,1016.23
2018-06-22T00:28:34.573Z,1016.23
2018-06-22T00:29:34.557Z,1016.20
2018-06-22T00:30:34.540Z,1016.22
2018-06-22T00:31:34.527Z,1016.18
2018-06-22T00:32:34.502Z,1016.23
2018-06-22T00:33:34.486Z,1016.16
2018-06-22T00:34:34.477Z,1016.21
2018-06-22T00:35:34.451Z,1016.23
2018-06-22T00:36:34.443Z,1016.21
2018-06-22T00:37:34.461Z,1016.14
2018-06-22T00:38:34.406Z,1016.13
2018-06-22T00:39:34.432Z,1016.14
2018-06-22T00:40:34.363Z,1016.14
2018-06-22T00:41:34.346Z,1016.10
2018-06-22T00:42:34.377Z,1016.09
2018-06-22T00:43:34.311Z,1016.08
2018-06-22T00:44:34.295Z,1016.08
2018-06-22T00:45:34.278Z,1016.10
2018-06-22T00:46:34.257Z,1016.07
2018-06-22T00:47:35.656Z,1016.06
2018-06-22T00:48:34.224Z,1016.03
2018-06-22T00:49:34.205Z,1016.00
2018-06-22T00:50:34.191Z,1016.02
2018-06-22T00:51:34.171Z,1016.04
2018-06-22T00:52:34.155Z,1016.00
2018-06-22T00:53:34.135Z,1015.99
2018-06-22T00:54:34.115Z,1015.93
2018-06-22T00:55:34.097Z,1015.96
2018-06-22T00:56:34.080Z,1016.01
2018-06-22T00:57:34.066Z,1016.00
2018-06-22T00:58:34.045Z,1016.02
2018-06-22T00:59:34.027Z,1015.99
2018-06-22T01:00:34.011Z,1015.97
2018-06-22T01:01:33.993Z,1015.96
2018-06-22T01:02:33.975Z,1015.94
2018-06-22T01:03:33.956Z,1015.92
2018-06-22T01:04:33.942Z,1015.93
2018-06-22T01:05:33.929Z,1015.95
2018-06-22T01:06:33.905Z,1015.95
2018-06-22T01:07:33.890Z,1015.90
2018-06-22T01:08:33.878Z,1015.88
2018-06-22T01:09:33.853Z,1015.84
2018-06-22T01:10:33.831Z,1015.87
2018-06-22T01:11:33.817Z,1015.87
2018-06-22T01:12:33.812Z,1015.85
2018-06-22T01:13:33.778Z,1015.78
2018-06-22T01:14:33.764Z,1015.79
2018-06-22T01:15:33.750Z,1015.80
2018-06-22T01:16:33.727Z,1015.79
2018-06-22T01:17:33.709Z,1015.79
2018-06-22T01:18:33.691Z,1015.77
2018-06-22T01:19:33.673Z,1015.83
2018-06-22T01:20:33.653Z,1015.75
2018-06-22T01:21:33.640Z,1015.80
2018-06-22T01:22:33.619Z,1015.82
2018-06-22T01:23:33.600Z,1015.86
2018-06-22T01:24:33.591Z,1015.87
2018-06-22T01:25:33.567Z,1015.83
2018-06-22T01:26:33.549Z,1015.78
2018-06-22T01:27:33.538Z,1015.77
2018-06-22T01:28:33.513Z,1015.80
2018-06-22T01:29:33.495Z,1015.78
2018-06-22T01:30:33.476Z,1015.72
2018-06-22T01:31:33.469Z,1015.77
2018-06-22T01:32:33.442Z,1015.74
2018-06-22T01:33:33.425Z,1015.68
2018-06-22T01:34:33.411Z,1015.71
2018-06-22T01:35:33.391Z,1015.71
2018-06-22T01:36:33.375Z,1015.69
2018-06-22T01:37:33.352Z,1015.72
2018-06-22T01:38:33.333Z,1015.71
2018-06-22T01:39:33.316Z,1015.71
2018-06-22T01:40:33.298Z,1015.69
2018-06-22T01:41:33.283Z,1015.65
2018-06-22T01:42:33.262Z,1015.65
2018-06-22T01:43:33.254Z,1015.66
2018-06-22T01:44:33.228Z,1015.62
2018-06-22T01:45:33.211Z,1015.64
2018-06-22T01:46:33.192Z,1015.64
2018-06-22T01:47:33.175Z,1015.65
2018-06-22T01:48:33.156Z,1015.60
2018-06-22T01:49:33.145Z,1015.63
2018-06-22T01:50:33.121Z,1015.58
2018-06-22T01:51:33.103Z,1015.62
2018-06-22T01:52:33.085Z,1015.62
2018-06-22T01:53:33.075Z,1015.59
2018-06-22T01:54:33.050Z,1015.57
2018-06-22T01:55:33.039Z,1015.54
2018-06-22T01:56:33.015Z,1015.62
2018-06-22T01:57:32.994Z,1015.52
2018-06-22T01:58:32.980Z,1015.51
2018-06-22T01:59:32.959Z,1015.62
2018-06-22T02:00:32.942Z,1015.57
2018-06-22T02:01:32.924Z,1015.56
2018-06-22T02:02:32.907Z,1015.58
2018-06-22T02:03:32.889Z,1015.58
2018-06-22T02:04:32.878Z,1015.57
2018-06-22T02:05:32.853Z,1015.57
2018-06-22T02:06:32.835Z,1015.54
2018-06-22T02:07:32.818Z,1015.54
2018-06-22T02:08:32.800Z,1015.51
2018-06-22T02:09:32.784Z,1015.53
2018-06-22T02:10:32.763Z,1015.52
2018-06-22T02:11:32.750Z,1015.46
2018-06-22T02:12:32.736Z,1015.48
2018-06-22T02:13:32.710Z,1015.52
2018-06-22T02:14:32.693Z,1015.48
2018-06-22T02:15:32.681Z,1015.55
2018-06-22T02:16:32.664Z,1015.54
2018-06-22T02:17:32.640Z,1015.52
2018-06-22T02:18:32.629Z,1015.44
2018-06-22T02:19:32.605Z,1015.48
2018-06-22T02:20:32.587Z,1015.53
2018-06-22T02:21:32.569Z,1015.53
2018-06-22T02:22:32.550Z,1015.52
2018-06-22T02:23:32.533Z,1015.49
2018-06-22T02:24:32.515Z,1015.46
2018-06-22T02:25:32.498Z,1015.40
2018-06-22T02:26:32.478Z,1015.35
2018-06-22T02:27:32.462Z,1015.41
2018-06-22T02:28:32.452Z,1015.37
2018-06-22T02:29:32.438Z,1015.42
2018-06-22T02:30:32.409Z,1015.38
2018-06-22T02:31:32.393Z,1015.39
2018-06-22T02:32:32.372Z,1015.36
2018-06-22T02:33:32.358Z,1015.34
2018-06-22T02:34:32.344Z,1015.35
2018-06-22T02:35:32.320Z,1015.36
2018-06-22T02:36:32.303Z,1015.33
2018-06-22T02:37:32.286Z,1015.28
2018-06-22T02:38:32.266Z,1015.32
2018-06-22T02:39:32.248Z,1015.27
2018-06-22T02:40:32.233Z,1015.27
2018-06-22T02:41:32.213Z,1015.23
2018-06-22T02:42:32.214Z,1015.26
2018-06-22T02:43:32.176Z,1015.24
2018-06-22T02:44:32.157Z,1015.22
2018-06-22T02:45:32.141Z,1015.24
2018-06-22T02:46:32.121Z,1015.30
2018-06-22T02:47:32.106Z,1015.30
2018-06-22T02:48:32.087Z,1015.26
2018-06-22T02:49:32.069Z,1015.32
2018-06-22T02:50:32.052Z,1015.34
2018-06-22T02:51:32.034Z,1015.38
2018-06-22T02:52:32.015Z,1015.38
2018-06-22T02:53:32.007Z,1015.40
2018-06-22T02:54:31.983Z,1015.35
2018-06-22T02:55:31.969Z,1015.36
2018-06-22T02:56:31.951Z,1015.38
2018-06-22T02:57:31.925Z,1015.38
2018-06-22T02:58:31.913Z,1015.29
2018-06-22T02:59:31.888Z,1015.32
2018-06-22T03:00:31.879Z,1015.23
2018-06-22T03:01:31.854Z,1015.26
2018-06-22T03:02:31.835Z,1015.18
2018-06-22T03:03:31.817Z,1015.27
2018-06-22T03:04:31.836Z,1015.23
2018-06-22T03:05:31.782Z,1015.17
2018-06-22T03:06:31.769Z,1015.21
2018-06-22T03:07:31.744Z,1015.16
2018-06-22T03:08:31.735Z,1015.10
2018-06-22T03:09:31.710Z,1015.09
2018-06-22T03:10:31.693Z,1015.17
2018-06-22T03:11:31.672Z,1015.18
2018-06-22T03:12:31.654Z,1015.17
2018-06-22T03:13:31.637Z,1015.10
2018-06-22T03:14:31.619Z,1015.15
2018-06-22T03:15:31.610Z,1015.17
2018-06-22T03:16:31.598Z,1015.19
2018-06-22T03:17:31.568Z,1015.15
2018-06-22T03:18:31.546Z,1015.20
2018-06-22T03:19:31.531Z,1015.21
2018-06-22T03:20:31.511Z,1015.21
2018-06-22T03:21:31.493Z,1015.18
2018-06-22T03:22:31.583Z,1015.18
2018-06-22T03:23:31.464Z,1015.17
2018-06-22T03:24:31.440Z,1015.17
2018-06-22T03:25:31.473Z,1015.16
2018-06-22T03:26:31.402Z,1015.09
2018-06-22T03:27:31.385Z,1015.12
2018-06-22T03:28:31.369Z,1015.18
2018-06-22T03:29:31.349Z,1015.10
2018-06-22T03:30:31.330Z,1015.11
2018-06-22T03:31:31.315Z,1015.14
2018-06-22T03:32:31.295Z,1015.05
2018-06-22T03:33:31.308Z,1015.11
2018-06-22T03:34:31.268Z,1015.10
2018-06-22T03:35:31.242Z,1015.11
2018-06-22T03:36:31.223Z,1015.07
2018-06-22T03:37:31.214Z,1015.08
2018-06-22T03:38:31.188Z,1015.07
2018-06-22T03:39:31.220Z,1015.07
2018-06-22T03:40:31.157Z,1015.06
2018-06-22T03:41:31.137Z,1015.09
2018-06-22T03:42:31.118Z,1015.07
2018-06-22T03:43:31.101Z,1015.12
2018-06-22T03:44:31.091Z,1015.12
2018-06-22T03:45:31.066Z,1015.11
2018-06-22T03:46:31.056Z,1015.07
2018-06-22T03:47:31.028Z,1015.08
2018-06-22T03:48:31.011Z,1015.01
2018-06-22T03:49:30.995Z,1015.03
2018-06-22T03:50:30.974Z,1014.97
2018-06-22T03:51:30.961Z,1014.99
2018-06-22T03:52:30.988Z,1014.94
2018-06-22T03:53:30.920Z,1014.94
2018-06-22T03:54:30.902Z,1014.91
2018-06-22T03:55:30.884Z,1014.93
2018-06-22T03:56:30.866Z,1014.97
2018-06-22T03:57:30.851Z,1014.96
2018-06-22T03:58:30.830Z,1014.97
2018-06-22T03:59:30.812Z,1014.94
2018-06-22T04:00:30.795Z,1014.93
2018-06-22T04:01:30.777Z,1014.94
2018-06-22T04:02:30.758Z,1014.96
2018-06-22T04:03:30.740Z,1014.88
2018-06-22T04:04:30.723Z,1014.90
2018-06-22T04:05:30.709Z,1014.84
2018-06-22T04:06:30.686Z,1014.82
2018-06-22T04:07:30.670Z,1014.80
2018-06-22T04:08:30.652Z,1014.71
2018-06-22T04:09:30.636Z,1014.74
2018-06-22T04:10:30.615Z,1014.83
2018-06-22T04:11:30.606Z,1014.77
2018-06-22T04:12:30.581Z,1014.80
2018-06-22T04:13:30.563Z,1014.82
2018-06-22T04:14:30.543Z,1014.78
2018-06-22T04:15:30.526Z,1014.77
2018-06-22T04:16:30.508Z,1014.76
2018-06-22T04:17:30.491Z,1014.74
2018-06-22T04:18:30.473Z,1014.67
2018-06-22T04:19:30.456Z,1014.72
2018-06-22T04:20:30.441Z,1014.77
2018-06-22T04:21:30.419Z,1014.75
2018-06-22T04:22:30.403Z,1014.77
2018-06-22T04:23:30.384Z,1014.78
2018-06-22T04:24:30.427Z,1014.86
2018-06-22T04:25:30.349Z,1014.82
2018-06-22T04:26:30.330Z,1014.88
2018-06-22T04:27:30.401Z,1014.91
2018-06-22T04:28:30.296Z,1014.88
2018-06-22T04:29:30.276Z,1014.87
2018-06-22T04:30:30.259Z,1014.87
2018-06-22T04:31:30.240Z,1014.85
2018-06-22T04:32:30.231Z,1014.91
2018-06-22T04:33:30.206Z,1014.90
2018-06-22T04:34:30.186Z,1014.95
2018-06-22T04:35:30.170Z,1014.94
2018-06-22T04:36:30.149Z,1014.96
2018-06-22T04:37:30.136Z,1015.00
2018-06-22T04:38:30.115Z,1014.98
2018-06-22T04:39:30.096Z,1015.06
2018-06-22T04:40:30.079Z,1015.02
2018-06-22T04:41:30.162Z,1015.03
2018-06-22T04:42:30.051Z,1015.11
2018-06-22T04:43:30.024Z,1015.12
2018-06-22T04:44:30.011Z,1015.09
2018-06-22T04:45:29.998Z,1015.11
2018-06-22T04:46:29.972Z,1015.06
2018-06-22T04:47:29.952Z,1015.16
2018-06-22T04:48:29.936Z,1015.14
2018-06-22T04:49:29.917Z,1015.16
2018-06-22T04:50:29.898Z,1015.23
2018-06-22T04:51:29.885Z,1015.22
2018-06-22T04:52:29.862Z,1015.21
2018-06-22T04:53:29.847Z,1015.25
2018-06-22T04:54:29.836Z,1015.26
2018-06-22T04:55:29.810Z,1015.23
2018-06-22T04:56:29.792Z,1015.15
2018-06-22T04:57:29.778Z,1015.17
2018-06-22T04:58:29.757Z,1015.17
2018-06-22T04:59:29.741Z,1015.21
2018-06-22T05:00:29.724Z,1015.27
2018-06-22T05:01:29.703Z,1015.25
2018-06-22T05:02:29.688Z,1015.31
2018-06-22T05:03:29.668Z,1015.32
2018-06-22T05:04:29.649Z,1015.29
2018-06-22T05:05:29.633Z,1015.26
2018-06-22T05:06:29.613Z,1015.32
2018-06-22T05:07:29.594Z,1015.26
2018-06-22T05:08:29.594Z,1015.29
2018-06-22T05:09:29.559Z,1015.30
2018-06-22T05:10:29.550Z,1015.32
2018-06-22T05:11:29.524Z,1015.31
2018-06-22T05:12:29.507Z,1015.33
2018-06-22T05:13:29.494Z,1015.38
2018-06-22T05:14:29.471Z,1015.37
2018-06-22T05:15:29.452Z,1015.41
2018-06-22T05:16:29.438Z,1015.43
2018-06-22T05:17:29.419Z,1015.40
2018-06-22T05:18:29.399Z,1015.33
2018-06-22T05:19:29.385Z,1015.43
2018-06-22T05:20:29.364Z,1015.38
2018-06-22T05:21:29.348Z,1015.39
2018-06-22T05:22:29.327Z,1015.35
2018-06-22T05:23:29.312Z,1015.41
2018-06-22T05:24:29.293Z,1015.45
2018-06-22T05:25:29.275Z,1015.45
2018-06-22T05:26:29.260Z,1015.50
2018-06-22T05:27:29.238Z,1015.54
2018-06-22T05:28:29.221Z,1015.50
2018-06-22T05:29:29.239Z,1015.54
2018-06-22T05:30:29.193Z,1015.55
2018-06-22T05:31:29.175Z,1015.56
2018-06-22T05:32:29.152Z,1015.56
2018-06-22T05:33:29.140Z,1015.54
2018-06-22T05:34:29.114Z,1015.53
2018-06-22T05:35:29.130Z,1015.59
2018-06-22T05:36:29.080Z,1015.55
2018-06-22T05:37:29.061Z,1015.56
2018-06-22T05:38:29.049Z,1015.57
2018-06-22T05:39:29.029Z,1015.55
2018-06-22T05:40:29.016Z,1015.58
2018-06-22T05:41:29.026Z,1015.51
2018-06-22T05:42:28.973Z,1015.53
2018-06-22T05:43:29.055Z,1015.59
2018-06-22T05:44:28.938Z,1015.58
2018-06-22T05:45:28.920Z,1015.62
2018-06-22T05:46:28.902Z,1015.60
2018-06-22T05:47:28.886Z,1015.67
2018-06-22T05:48:28.867Z,1015.63
2018-06-22T05:49:28.958Z,1015.71
2018-06-22T05:50:28.836Z,1015.69
2018-06-22T05:51:28.814Z,1015.71
2018-06-22T05:52:28.845Z,1015.68
2018-06-22T05:53:28.789Z,1015.75
2018-06-22T05:54:28.761Z,1015.71
2018-06-22T05:55:28.746Z,1015.67
2018-06-22T05:56:28.804Z,1015.71
2018-06-22T05:57:28.753Z,1015.75
2018-06-22T05:58:28.701Z,1015.76
2018-06-22T05:59:28.689Z,1015.78
2018-06-22T06:00:28.658Z,1015.70
2018-06-22T06:01:28.659Z,1015.70
2018-06-22T06:02:28.632Z,1015.76
2018-06-22T06:03:28.632Z,1015.71
2018-06-22T06:04:28.591Z,1015.75
2018-06-22T06:05:28.578Z,1015.84
2018-06-22T06:06:28.558Z,1015.76
2018-06-22T06:07:28.541Z,1015.78
2018-06-22T06:08:28.524Z,1015.82
2018-06-22T06:09:28.509Z,1015.81
2018-06-22T06:10:28.491Z,1015.85
2018-06-22T06:11:28.491Z,1015.84
2018-06-22T06:12:28.509Z,1015.92
2018-06-22T06:13:28.463Z,1015.89
2018-06-22T06:14:28.424Z,1015.93
2018-06-22T06:15:28.418Z,1015.96
2018-06-22T06:16:28.392Z,1016.00
2018-06-22T06:17:28.376Z,1016.14
2018-06-22T06:18:28.357Z,1016.10
2018-06-22T06:19:28.344Z,1016.07
2018-06-22T06:20:28.328Z,1016.02
2018-06-22T06:21:28.320Z,1016.06
2018-06-22T06:22:28.301Z,1016.15
2018-06-22T06:23:28.277Z,1016.14
2018-06-22T06:24:28.279Z,1016.08
2018-06-22T06:25:28.249Z,1016.12
2018-06-22T06:26:28.228Z,1016.06
2018-06-22T06:27:28.218Z,1016.07
2018-06-22T06:28:28.198Z,1016.12
2018-06-22T06:29:28.183Z,1016.12
2018-06-22T06:30:28.166Z,1016.12
2018-06-22T06:31:28.151Z,1016.16
2018-06-22T06:32:28.139Z,1016.11
2018-06-22T06:33:28.120Z,1016.14
2018-06-22T06:34:28.207Z,1016.17
2018-06-22T06:35:28.087Z,1016.18
2018-06-22T06:36:28.073Z,1016.13
2018-06-22T06:37:28.056Z,1016.12
2018-06-22T06:38:28.040Z,1016.15
2018-06-22T06:39:28.025Z,1016.22
2018-06-22T06:40:28.010Z,1016.16
2018-06-22T06:41:27.992Z,1016.20
2018-06-22T06:42:27.983Z,1016.23
2018-06-22T06:43:27.963Z,1016.23
2018-06-22T06:44:27.945Z,1016.24
2018-06-22T06:45:27.929Z,1016.28
2018-06-22T06:46:27.919Z,1016.28
2018-06-22T06:47:27.905Z,1016.30
2018-06-22T06:48:27.883Z,1016.34
2018-06-22T06:49:27.874Z,1016.32
2018-06-22T06:50:27.859Z,1016.31
2018-06-22T06:51:27.836Z,1016.36
2018-06-22T06:52:27.819Z,1016.34
2018-06-22T06:53:27.806Z,1016.31
2018-06-22T06:54:27.788Z,1016.35
2018-06-22T06:55:27.773Z,1016.40
2018-06-22T06:56:27.757Z,1016.33
2018-06-22T06:57:27.743Z,1016.40
2018-06-22T06:58:27.729Z,1016.43
2018-06-22T06:59:27.711Z,1016.33
2018-06-22T07:00:27.695Z,1016.32
2018-06-22T07:01:27.681Z,1016.42
2018-06-22T07:02:27.685Z,1016.55
2018-06-22T07:03:27.650Z,1016.69
2018-06-22T07:04:27.637Z,1016.63
2018-06-22T07:05:27.621Z,1016.53
2018-06-22T07:06:27.604Z,1016.62
2018-06-22T07:07:27.592Z,1016.59
2018-06-22T07:08:27.603Z,1016.54
2018-06-22T07:09:27.570Z,1016.67
2018-06-22T07:10:27.557Z,1016.78
2018-06-22T07:11:27.532Z,1016.67
2018-06-22T07:12:27.525Z,1016.73
2018-06-22T07:13:27.504Z,1016.67
2018-06-22T07:14:27.557Z,1017.12
2018-06-22T07:15:27.485Z,1016.99
2018-06-22T07:16:27.466Z,1017.09
2018-06-22T07:17:27.461Z,1017.10
2018-06-22T07:18:27.438Z,1016.96
2018-06-22T07:19:27.435Z,1017.13
2018-06-22T07:20:27.422Z,1017.21
2018-06-22T07:21:27.406Z,1017.18
2018-06-22T07:22:27.391Z,1016.99
2018-06-22T07:23:27.409Z,1016.79
2018-06-22T07:24:27.369Z,1016.69
2018-06-22T07:25:27.366Z,1016.79
2018-06-22T07:26:27.352Z,1016.73
2018-06-22T07:27:27.443Z,1016.65
2018-06-22T07:28:27.332Z,1016.68
2018-06-22T07:29:27.316Z,1016.75
2018-06-22T07:30:27.316Z,1016.75
2018-06-22T07:31:27.300Z,1016.76
2018-06-22T07:32:27.285Z,1017.05
2018-06-22T07:33:27.277Z,1016.86
2018-06-22T07:34:27.271Z,1016.78
2018-06-22T07:35:27.256Z,1016.74
2018-06-22T07:36:27.246Z,1016.73
2018-06-22T07:37:27.242Z,1016.77
2018-06-22T07:38:27.223Z,1016.79
2018-06-22T07:39:27.220Z,1017.02
2018-06-22T07:40:27.201Z,1016.84
2018-06-22T07:41:27.197Z,1016.79
2018-06-22T07:42:27.185Z,1016.78
2018-06-22T07:43:27.168Z,1016.83
2018-06-22T07:44:27.159Z,1016.77
2018-06-22T07:45:27.152Z,1016.87
2018-06-22T07:46:27.138Z,1016.81
2018-06-22T07:47:27.129Z,1016.82
2018-06-22T07:48:27.116Z,1016.85
2018-06-22T07:49:27.108Z,1016.80
2018-06-22T07:50:27.103Z,1016.82
2018-06-22T07:51:27.086Z,1016.71
2018-06-22T07:52:27.075Z,1016.65
2018-06-22T07:53:27.065Z,1016.63
2018-06-22T07:54:27.152Z,1016.62
2018-06-22T07:55:27.050Z,1016.63
2018-06-22T07:56:27.033Z,1016.68
2018-06-22T07:57:27.025Z,1016.69
2018-06-22T07:58:27.010Z,1016.73
2018-06-22T07:59:26.997Z,1016.87
2018-06-22T08:00:26.988Z,1016.78
2018-06-22T08:01:26.976Z,1016.85
2018-06-22T08:02:26.963Z,1016.80
2018-06-22T08:03:26.954Z,1016.84
2018-06-22T08:04:26.941Z,1016.87
2018-06-22T08:05:26.935Z,1016.74
2018-06-22T08:06:26.919Z,1016.83
2018-06-22T08:07:26.917Z,1016.84
2018-06-22T08:08:26.893Z,1016.87
2018-06-22T08:09:26.883Z,1017.09
2018-06-22T08:10:26.873Z,1016.88
2018-06-22T08:11:26.861Z,1016.78
2018-06-22T08:12:26.850Z,1016.82
2018-06-22T08:13:26.838Z,1016.83
2018-06-22T08:14:26.827Z,1016.74
2018-06-22T08:15:26.813Z,1016.82
2018-06-22T08:16:26.805Z,1016.75
2018-06-22T08:17:26.795Z,1016.98
2018-06-22T08:18:26.784Z,1016.91
2018-06-22T08:19:26.770Z,1016.99
2018-06-22T08:20:26.759Z,1016.87
2018-06-22T08:21:26.756Z,1016.89
2018-06-22T08:25:54.118Z,1017.01
2018-06-22T08:26:54.109Z,1016.94
2018-06-22T08:27:54.094Z,1016.86
2018-06-22T08:28:54.087Z,1016.88
2018-06-22T08:29:54.179Z,1016.85
2018-06-22T08:30:54.060Z,1016.92
2018-06-22T08:31:54.050Z,1016.94
2018-06-22T08:32:54.036Z,1016.87
2018-06-22T08:33:54.025Z,1016.99
2018-06-22T08:34:54.043Z,1016.99
2018-06-22T08:35:54.001Z,1017.00
2018-06-22T08:36:53.990Z,1017.04
2018-06-22T08:37:53.979Z,1016.96
2018-06-22T08:38:53.965Z,1016.99
2018-06-22T08:39:53.964Z,1017.08
2018-06-22T08:40:53.944Z,1017.09
2018-06-22T08:41:53.988Z,1017.01
2018-06-22T08:42:53.916Z,1017.02
2018-06-22T08:43:53.908Z,1017.04
2018-06-22T08:44:53.891Z,1017.06
2018-06-22T08:45:53.912Z,1017.12
2018-06-22T08:46:53.867Z,1017.10
2018-06-22T08:47:53.855Z,1017.10
2018-06-22T08:48:53.894Z,1017.10
2018-06-22T08:49:53.835Z,1017.10
2018-06-22T08:50:53.818Z,1017.09
2018-06-22T08:51:53.803Z,1017.12
2018-06-22T08:52:53.791Z,1017.11
2018-06-22T08:53:53.810Z,1017.13
2018-06-22T08:54:53.768Z,1017.17
2018-06-22T08:55:53.760Z,1017.16
2018-06-22T08:56:53.752Z,1017.15
2018-06-22T08:57:53.732Z,1017.20
2018-06-22T08:58:53.730Z,1017.23
2018-06-22T08:59:53.716Z,1017.22
2018-06-22T09:00:53.710Z,1017.25
2018-06-22T09:01:53.688Z,1017.27
2018-06-22T09:02:53.674Z,1017.26
2018-06-22T09:03:53.663Z,1017.30
2018-06-22T09:04:53.653Z,1017.35
2018-06-22T09:05:53.640Z,1017.24
2018-06-22T09:06:53.627Z,1017.37
2018-06-22T09:07:53.616Z,1017.26
2018-06-22T09:08:53.603Z,1017.26
2018-06-22T09:09:53.745Z,1017.30
2018-06-22T09:10:53.582Z,1017.32
2018-06-22T09:11:53.570Z,1017.42
2018-06-22T09:12:53.559Z,1017.32
2018-06-22T09:13:53.555Z,1017.43
2018-06-22T09:14:53.537Z,1017.53
2018-06-22T09:15:53.526Z,1017.73
2018-06-22T09:16:53.517Z,1017.48
2018-06-22T09:17:53.505Z,1017.32
2018-06-22T09:18:53.495Z,1017.44
2018-06-22T09:19:53.486Z,1017.43
2018-06-22T09:20:53.484Z,1017.37
2018-06-22T09:21:53.480Z,1017.42
2018-06-22T09:22:53.454Z,1017.44
2018-06-22T09:23:53.446Z,1017.44
2018-06-22T09:24:53.434Z,1017.53
2018-06-22T09:25:53.423Z,1017.45
2018-06-22T09:26:53.423Z,1017.51
2018-06-22T09:27:53.416Z,1017.52
2018-06-22T09:28:53.398Z,1017.49
2018-06-22T09:29:53.386Z,1017.47
2018-06-22T09:30:53.374Z,1017.43
2018-06-22T09:31:53.363Z,1017.49
2018-06-22T09:32:53.357Z,1017.54
2018-06-22T09:33:53.350Z,1017.56
2018-06-22T09:34:53.334Z,1017.61
2018-06-22T09:35:53.335Z,1017.67
2018-06-22T09:36:53.323Z,1017.67
2018-06-22T09:37:53.298Z,1017.70
2018-06-22T09:38:53.302Z,1017.71
2018-06-22T09:39:53.280Z,1017.74
2018-06-22T09:40:53.268Z,1017.77
2018-06-22T09:41:53.431Z,1017.73
2018-06-22T09:42:53.312Z,1017.73
2018-06-22T09:43:53.234Z,1017.73
2018-06-22T09:44:53.224Z,1017.81
2018-06-22T09:45:53.211Z,1017.82
2018-06-22T09:46:53.201Z,1017.73
2018-06-22T09:47:53.189Z,1017.71
2018-06-22T09:48:53.176Z,1017.66
2018-06-22T09:49:53.164Z,1017.70
2018-06-22T09:50:53.155Z,1017.70
2018-06-22T09:51:53.159Z,1017.70
2018-06-22T09:52:53.134Z,1017.67
2018-06-22T09:53:53.137Z,1017.66
2018-06-22T09:54:53.111Z,1017.97
2018-06-22T09:55:53.101Z,1017.79
2018-06-22T09:56:53.091Z,1018.07
2018-06-22T09:57:53.088Z,1018.07
2018-06-22T09:58:53.071Z,1017.88
2018-06-22T09:59:53.061Z,1017.91
2018-06-22T10:00:53.053Z,1018.01
2018-06-22T10:01:53.043Z,1018.25
2018-06-22T10:02:53.043Z,1017.86
2018-06-22T10:03:53.026Z,1017.90
2018-06-22T10:04:53.114Z,1017.98
2018-06-22T10:05:53.090Z,1017.90
2018-06-22T10:06:53.010Z,1017.89
2018-06-22T10:07:52.995Z,1017.79
2018-06-22T10:08:52.998Z,1017.80
2018-06-22T10:09:52.981Z,1017.84
2018-06-22T10:10:52.972Z,1017.79
2018-06-22T10:11:52.967Z,1017.77
2018-06-22T10:12:52.959Z,1017.84
2018-06-22T10:13:52.949Z,1017.86
2018-06-22T10:14:52.948Z,1017.90
2018-06-22T10:15:52.943Z,1017.89
2018-06-22T10:16:52.937Z,1017.87
2018-06-22T10:17:52.921Z,1017.87
2018-06-22T10:18:52.915Z,1017.91
2018-06-22T10:19:52.906Z,1018.11
2018-06-22T10:20:52.900Z,1018.06
2018-06-22T10:21:52.891Z,1017.97
2018-06-22T10:22:52.884Z,1018.07
2018-06-22T10:23:52.885Z,1018.04
2018-06-22T10:24:52.876Z,1017.92
2018-06-22T10:25:52.868Z,1017.83
2018-06-22T10:26:52.923Z,1017.76
2018-06-22T10:27:52.856Z,1017.84
2018-06-22T10:28:52.860Z,1017.83
2018-06-22T10:29:52.842Z,1017.86
2018-06-22T10:30:52.844Z,1017.92
2018-06-22T10:31:52.829Z,1017.89
2018-06-22T10:32:52.825Z,1017.84
2018-06-22T10:33:52.871Z,1017.79
2018-06-22T10:34:52.815Z,1017.90
2018-06-22T10:35:52.802Z,1017.91
2018-06-22T10:36:52.797Z,1017.87
2018-06-22T10:37:52.790Z,1017.96
2018-06-22T10:38:52.784Z,1017.92
2018-06-22T10:39:52.777Z,1017.92
2018-06-22T10:40:52.772Z,1017.97
2018-06-22T10:41:52.774Z,1017.94
2018-06-22T10:42:52.762Z,1017.94
2018-06-22T10:43:52.756Z,1017.97
2018-06-22T10:44:52.759Z,1017.85
2018-06-22T10:45:52.752Z,1017.79
2018-06-22T10:46:52.743Z,1017.70
2018-06-22T10:47:52.739Z,1017.64
2018-06-22T10:48:52.731Z,1017.67
2018-06-22T10:49:52.728Z,1017.66
2018-06-22T10:50:52.737Z,1017.61
2018-06-22T10:51:52.734Z,1017.55
2018-06-22T10:52:52.719Z,1017.50
2018-06-22T10:53:52.713Z,1017.55
2018-06-22T10:54:52.714Z,1017.58
2018-06-22T10:55:52.712Z,1017.59
2018-06-22T10:56:52.709Z,1017.64
2018-06-22T10:57:52.709Z,1017.71
2018-06-22T10:58:52.714Z,1017.71
2018-06-22T10:59:52.787Z,1017.48
2018-06-22T11:00:52.710Z,1017.69
2018-06-22T11:01:52.704Z,1017.69
2018-06-22T11:02:52.706Z,1017.70
2018-06-22T11:03:52.702Z,1017.70
2018-06-22T11:04:52.705Z,1017.88
2018-06-22T11:05:52.784Z,1017.89
2018-06-22T11:06:52.705Z,1017.94
2018-06-22T11:07:52.715Z,1018.11
2018-06-22T11:08:52.704Z,1018.06
2018-06-22T11:09:52.704Z,1018.08
2018-06-22T11:10:52.711Z,1018.20
2018-06-22T11:11:52.707Z,1018.11
2018-06-22T11:12:52.748Z,1018.12
2018-06-22T11:13:52.718Z,1018.12
2018-06-22T11:14:52.719Z,1018.17
2018-06-22T11:15:52.711Z,1018.18
2018-06-22T11:16:52.777Z,1018.20
2018-06-22T11:17:52.711Z,1018.24
2018-06-22T11:18:52.719Z,1018.23
2018-06-22T11:19:52.712Z,1018.14
2018-06-22T11:20:52.712Z,1018.11
2018-06-22T11:21:52.707Z,1018.32
2018-06-22T11:22:52.708Z,1018.05
2018-06-22T11:23:52.714Z,1018.04
2018-06-22T11:24:52.789Z,1018.02
2018-06-22T11:25:52.709Z,1018.07
2018-06-22T11:26:52.698Z,1018.57
2018-06-22T11:27:52.696Z,1018.26
2018-06-22T11:28:52.697Z,1018.24
2018-06-22T11:29:52.689Z,1018.13
2018-06-22T11:30:52.697Z,1018.10
2018-06-22T11:31:52.697Z,1018.11
2018-06-22T11:32:52.678Z,1018.06
2018-06-22T11:33:52.675Z,1017.98
2018-06-22T11:34:52.679Z,1018.03
2018-06-22T11:35:52.689Z,1018.01
2018-06-22T11:36:52.663Z,1018.04
2018-06-22T11:37:52.658Z,1018.10
2018-06-22T11:38:52.661Z,1018.18
2018-06-22T11:39:52.658Z,1018.30
2018-06-22T11:40:52.647Z,1018.28
2018-06-22T11:41:52.631Z,1018.36
2018-06-22T11:42:52.629Z,1018.36
2018-06-22T11:43:52.618Z,1018.40
2018-06-22T11:44:52.617Z,1018.38
2018-06-22T11:45:52.620Z,1018.33
2018-06-22T11:46:52.604Z,1018.40
2018-06-22T11:47:52.589Z,1018.40
2018-06-22T11:48:52.579Z,1018.40
2018-06-22T11:49:52.567Z,1018.46
2018-06-22T11:50:52.569Z,1018.46
2018-06-22T11:51:52.559Z,1018.43
2018-06-22T11:52:52.552Z,1018.39
2018-06-22T11:53:52.532Z,1018.41
2018-06-22T11:54:52.522Z,1018.41
2018-06-22T11:55:56.128Z,1018.43
2018-06-22T11:56:52.512Z,1018.43
2018-06-22T11:57:52.494Z,1018.37
2018-06-22T11:58:52.486Z,1018.37
2018-06-22T11:59:52.478Z,1018.31
2018-06-22T12:00:52.470Z,1018.35
2018-06-22T12:01:52.458Z,1018.27
2018-06-22T12:02:52.442Z,1018.37
2018-06-22T12:03:52.433Z,1018.27
2018-06-22T12:04:52.423Z,1018.28
2018-06-22T12:05:52.422Z,1018.28
2018-06-22T12:06:52.401Z,1018.31
2018-06-22T12:07:52.391Z,1018.29
2018-06-22T12:08:52.383Z,1018.30